Saltar para o conteúdo principal

Chaves (Aeródromo)

ID 1210616 · 41.7252, -7.4654 mapa

Última leitura · 2026-05-09 18:00 (Europe/Lisbon)

Temperatura
12.3 °C
Humidade
85 %
Pressão
1,006.0 hPa
Precipitação
3.9 mm
Radiação
112 W/m²
Velocidade do vento
2.9 km/h
Direcção do vento
SE · Sudeste

Histórico de 24 horas

Hora (Europe/Lisbon) Temperatura Humidade Pressão Chuva Vento Direcção
2026-05-09 18:00 12.3 °C 85 % 1,006.0 3.9 mm 2.9 km/h SE
2026-05-09 17:00 14.9 °C 75 % 1,004.0 0.2 mm 12.6 km/h SW
2026-05-09 16:00 14.2 °C 80 % 1,004.1 0.4 mm 6.5 km/h NW
2026-05-09 15:00 16.1 °C 72 % 1,003.8 0.2 mm 18.0 km/h SE
2026-05-09 14:00 15.6 °C 73 % 1,004.3 0.0 mm 23.0 km/h SE
2026-05-09 13:00 13.7 °C 79 % 1,005.3 1.1 mm 20.5 km/h SE
2026-05-09 12:00 13.7 °C 77 % 1,005.4 1.5 mm 11.9 km/h SE
2026-05-09 11:00 15.3 °C 63 % 1,005.0 0.7 mm 11.2 km/h SE
2026-05-09 10:00 15.7 °C 62 % 1,004.8 0.0 mm 26.3 km/h SE
2026-05-09 09:00 14.5 °C 65 % 1,005.4 0.0 mm 19.1 km/h SE
2026-05-09 08:00 12.3 °C 81 % 1,005.6 0.0 mm 11.2 km/h SE
2026-05-09 07:00 11.8 °C 81 % 1,005.6 0.0 mm 3.6 km/h SW
2026-05-09 06:00 13.0 °C 74 % 1,005.5 0.0 mm 3.2 km/h N
2026-05-09 05:00 12.9 °C 75 % 1,005.6 0.0 mm 16.2 km/h SE
2026-05-09 04:00 12.1 °C 82 % 1,006.2 0.0 mm 14.0 km/h SE
2026-05-09 03:00 12.0 °C 82 % 1,006.8 0.5 mm 4.7 km/h N
2026-05-09 02:00 11.0 °C 87 % 1,007.2 0.0 mm 2.9 km/h S
2026-05-09 01:00 11.3 °C 84 % 1,007.5 0.0 mm 2.2 km/h SW
2026-05-09 00:00 10.6 °C 90 % 1,008.2 0.0 mm 11.5 km/h N
2026-05-08 23:00 10.9 °C 89 % 1,008.6 0.0 mm 4.3 km/h W
2026-05-08 22:00 12.2 °C 84 % 1,008.4 0.0 mm 6.1 km/h E
2026-05-08 21:00 13.5 °C 81 % 1,007.9 0.0 mm 3.2 km/h E
2026-05-08 20:00 15.2 °C 66 % 1,007.7 0.0 mm 5.4 km/h E
2026-05-08 19:00 15.5 °C 61 % 1,007.6 0.0 mm 3.2 km/h S